Time;durP1;ratioP1;P1;durP2;ratioP2;P2;SDS_P1;SDS_P2;PMS_P1;PMS_P2;Temp;Humidity;BMP_temperature;BMP_pressure;BME280_temperature;BME280_humidity;BME280_pressure;Samples;Min_cycle;Max_cycle;Signal;HPM_P1;HPM_P2
2022/06/23 00:00:35;;;;;;;17.30;6.65;;;20.00;96.20;;;;;;5073753;28;20212;-88
2022/06/23 00:03:06;;;;;;;13.25;7.05;;;20.10;96.20;;;;;;5069019;28;20198;-88
2022/06/23 00:05:38;;;;;;;13.95;6.75;;;20.10;96.30;;;;;;5065628;28;20202;-87
2022/06/23 00:08:11;;;;;;;14.15;7.00;;;20.10;95.90;;;;;;5069189;28;20209;-88
2022/06/23 00:11:02;;;;;;;12.82;7.13;;;20.00;96.10;;;;;;5072625;28;20303;-88
2022/06/23 00:13:36;;;;;;;11.50;6.97;;;20.10;96.00;;;;;;5074932;28;20197;-88
2022/06/23 00:16:05;;;;;;;12.57;6.63;;;20.20;95.60;;;;;;5073269;28;20748;-88
2022/06/23 00:18:45;;;;;;;15.52;6.72;;;20.40;95.60;;;;;;5071154;28;20209;-88
2022/06/23 00:21:19;;;;;;;13.45;6.15;;;20.40;95.50;;;;;;5070924;28;20250;-87
2022/06/23 00:23:57;;;;;;;16.30;6.97;;;20.40;95.50;;;;;;5072308;28;20200;-87
2022/06/23 00:26:30;;;;;;;10.90;6.07;;;20.50;94.90;;;;;;5077342;28;20248;-87
2022/06/23 00:29:00;;;;;;;11.65;6.28;;;20.40;95.00;;;;;;5081433;28;20203;-87
2022/06/23 00:31:29;;;;;;;12.70;6.05;;;20.40;95.10;;;;;;5075711;28;20202;-88
2022/06/23 00:33:58;;;;;;;13.23;6.05;;;20.30;95.20;;;;;;5080202;28;20968;-87
2022/06/23 00:36:36;;;;;;;12.23;6.45;;;20.20;95.70;;;;;;5067401;28;20562;-88
2022/06/23 00:39:23;;;;;;;12.65;5.95;;;20.10;95.70;;;;;;5054156;28;20907;-88
2022/06/23 00:41:51;;;;;;;12.52;6.03;;;20.20;95.90;;;;;;5068138;28;20278;-87
2022/06/23 00:44:31;;;;;;;11.88;6.10;;;20.20;95.70;;;;;;5071310;28;20201;-88
2022/06/23 00:47:07;;;;;;;13.35;5.93;;;20.20;95.30;;;;;;5075183;28;20892;-87
2022/06/23 00:49:48;;;;;;;12.98;6.13;;;20.20;95.40;;;;;;5077044;28;20240;-88
2022/06/23 00:52:29;;;;;;;12.23;6.57;;;20.10;95.40;;;;;;5078901;28;20193;-88
2022/06/23 00:55:13;;;;;;;14.77;7.70;;;20.00;95.80;;;;;;5078157;28;20204;-87
2022/06/23 00:57:45;;;;;;;13.27;7.22;;;20.10;96.10;;;;;;5054338;28;20245;-87
2022/06/23 01:00:35;;;;;;;16.48;7.15;;;20.00;96.10;;;;;;5078702;28;20239;-88
2022/06/23 01:03:15;;;;;;;11.88;7.47;;;19.90;96.60;;;;;;5075928;28;20193;-88
2022/06/23 01:05:51;;;;;;;10.82;7.22;;;20.00;96.80;;;;;;5079017;28;20212;-88
2022/06/23 01:08:33;;;;;;;11.70;7.50;;;20.00;96.70;;;;;;5080861;28;20189;-87
2022/06/23 01:11:11;;;;;;;14.60;7.15;;;20.10;96.40;;;;;;5081455;28;20192;-87
2022/06/23 01:13:43;;;;;;;12.40;6.90;;;20.10;96.30;;;;;;5082138;28;20197;-87
2022/06/23 01:16:23;;;;;;;13.05;7.00;;;20.20;96.50;;;;;;5082922;28;20538;-87
2022/06/23 01:19:09;;;;;;;10.82;7.05;;;20.20;96.10;;;;;;5084388;28;20304;-87
2022/06/23 01:22:05;;;;;;;11.70;7.20;;;20.10;96.20;;;;;;5089885;28;20204;-87
2022/06/23 01:24:40;;;;;;;12.45;7.05;;;20.00;96.20;;;;;;5079838;28;20197;-87
2022/06/23 01:27:25;;;;;;;11.70;6.32;;;20.00;96.50;;;;;;5085008;28;20195;-87
2022/06/23 01:30:03;;;;;;;14.73;6.65;;;20.00;96.70;;;;;;5079143;28;20190;-87
2022/06/23 01:32:35;;;;;;;11.55;6.47;;;19.90;96.30;;;;;;5084552;28;20220;-87
2022/06/23 01:35:17;;;;;;;14.73;6.75;;;19.90;96.60;;;;;;5076471;28;20195;-87
2022/06/23 01:37:51;;;;;;;12.00;6.65;;;19.80;96.50;;;;;;5082412;28;20228;-88
2022/06/23 01:40:32;;;;;;;9.95;6.10;;;19.80;96.50;;;;;;5075839;28;20239;-87
2022/06/23 01:43:08;;;;;;;9.75;6.18;;;19.90;96.80;;;;;;5076390;28;20198;-88
2022/06/23 01:45:43;;;;;;;12.02;6.50;;;19.80;96.60;;;;;;5075255;28;20227;-87
2022/06/23 01:48:52;;;;;;;15.32;6.25;;;19.90;96.40;;;;;;5081574;28;20205;-88
2022/06/23 01:51:24;;;;;;;10.90;5.97;;;19.80;96.40;;;;;;5076842;28;20265;-87
2022/06/23 01:54:13;;;;;;;12.30;6.22;;;19.80;96.50;;;;;;5078174;28;20213;-87
2022/06/23 01:56:58;;;;;;;12.07;5.95;;;19.90;96.30;;;;;;5076757;28;20649;-87
2022/06/23 01:59:43;;;;;;;12.70;6.07;;;19.80;96.10;;;;;;5073224;28;20224;-87
2022/06/23 02:02:47;;;;;;;15.65;6.38;;;19.80;96.30;;;;;;5077161;28;20205;-88
2022/06/23 02:05:24;;;;;;;14.27;6.20;;;19.70;96.10;;;;;;5032276;28;20203;-87
2022/06/23 02:07:58;;;;;;;14.23;6.07;;;19.60;96.80;;;;;;5036113;28;20329;-87
2022/06/23 02:10:31;;;;;;;15.63;6.40;;;19.60;96.80;;;;;;5032307;28;20223;-88
2022/06/23 02:13:19;;;;;;;10.80;5.70;;;19.60;96.90;;;;;;5030542;28;20210;-88
2022/06/23 02:15:56;;;;;;;10.48;5.30;;;19.60;96.30;;;;;;5028873;28;20788;-88
2022/06/23 02:18:31;;;;;;;12.00;5.85;;;19.60;96.40;;;;;;5027899;28;20544;-87
2022/06/23 02:21:23;;;;;;;14.52;5.70;;;19.60;96.40;;;;;;5032656;28;20213;-88
2022/06/23 02:24:15;;;;;;;13.15;5.38;;;19.60;96.20;;;;;;5039278;28;20200;-87
2022/06/23 02:26:59;;;;;;;13.13;5.80;;;19.60;96.30;;;;;;5030953;28;20194;-87
2022/06/23 02:29:32;;;;;;;11.25;5.43;;;19.50;96.30;;;;;;5035589;28;20581;-87
2022/06/23 02:32:12;;;;;;;11.52;5.18;;;19.40;96.60;;;;;;5036113;28;20202;-87
2022/06/23 02:34:47;;;;;;;15.52;5.85;;;19.40;96.80;;;;;;5039152;28;20202;-87
2022/06/23 02:37:53;;;;;;;14.10;5.40;;;19.30;97.10;;;;;;5036462;28;20195;-87
2022/06/23 02:40:33;;;;;;;12.70;5.38;;;19.40;97.30;;;;;;5037717;28;20228;-87
2022/06/23 02:43:04;;;;;;;12.15;5.18;;;19.50;97.10;;;;;;5081241;28;20197;-87
2022/06/23 02:46:03;;;;;;;12.35;5.47;;;19.60;96.50;;;;;;5078570;28;20305;-88
2022/06/23 02:48:57;;;;;;;9.57;5.03;;;19.60;96.60;;;;;;5017211;28;20214;-87
2022/06/23 02:51:50;;;;;;;16.15;5.60;;;19.70;96.20;;;;;;5018596;28;20652;-87
2022/06/23 02:54:34;;;;;;;13.25;5.70;;;19.60;96.30;;;;;;5004227;28;20207;-87
2022/06/23 02:57:13;;;;;;;11.52;5.32;;;19.70;96.40;;;;;;5007380;28;20204;-87
2022/06/23 02:59:56;;;;;;;19.60;6.32;;;19.70;96.30;;;;;;5007689;28;20226;-87
2022/06/23 03:02:33;;;;;;;19.67;5.63;;;19.70;96.30;;;;;;5011785;28;20214;-87
2022/06/23 03:05:08;;;;;;;16.65;5.80;;;19.60;96.30;;;;;;5017368;28;20701;-87
2022/06/23 03:07:42;;;;;;;11.63;5.43;;;19.50;96.50;;;;;;5009884;28;20230;-87
2022/06/23 03:10:17;;;;;;;12.10;5.47;;;19.60;96.60;;;;;;5010766;28;20194;-87
2022/06/23 03:12:50;;;;;;;11.95;5.60;;;19.60;96.30;;;;;;5011612;28;20217;-87
2022/06/23 03:15:25;;;;;;;17.50;5.75;;;19.60;96.20;;;;;;5016606;28;20210;-88
2022/06/23 03:18:11;;;;;;;10.77;5.15;;;19.60;96.20;;;;;;5024196;28;20576;-87
2022/06/23 03:20:46;;;;;;;12.77;5.70;;;19.60;96.40;;;;;;5015155;28;20211;-87
2022/06/23 03:23:22;;;;;;;14.38;5.32;;;19.60;96.30;;;;;;5011179;28;20191;-87
2022/06/23 03:25:56;;;;;;;8.40;5.15;;;19.60;96.20;;;;;;5050148;28;20227;-87
2022/06/23 03:28:43;;;;;;;12.98;5.50;;;19.50;96.60;;;;;;5066376;28;20223;-87
2022/06/23 03:31:18;;;;;;;14.63;5.20;;;19.60;96.60;;;;;;5076467;28;20648;-87
2022/06/23 03:33:56;;;;;;;14.13;5.70;;;19.50;96.40;;;;;;5054415;28;20338;-87
2022/06/23 03:36:29;;;;;;;12.50;5.68;;;19.50;96.60;;;;;;5088558;28;20200;-88
2022/06/23 03:41:54;;;;;;;16.73;6.05;;;19.30;96.70;;;;;;5087040;28;20243;-88
2022/06/23 03:44:25;;;;;;;16.67;5.18;;;19.30;97.40;;;;;;5079255;28;20193;-87
2022/06/23 03:46:57;;;;;;;15.32;5.95;;;19.20;96.80;;;;;;5082465;28;20212;-87
2022/06/23 03:49:44;;;;;;;13.20;5.13;;;19.10;96.80;;;;;;5088940;28;20198;-87
2022/06/23 03:52:43;;;;;;;16.95;5.18;;;19.10;97.50;;;;;;5087280;28;20206;-87
2022/06/23 03:55:23;;;;;;;14.65;5.38;;;19.20;97.00;;;;;;5076280;28;20236;-87
2022/06/23 03:57:56;;;;;;;18.35;5.68;;;19.20;96.80;;;;;;5077859;28;20203;-87
2022/06/23 04:00:43;;;;;;;13.52;5.50;;;19.20;96.90;;;;;;5076449;28;20220;-87
2022/06/23 04:03:22;;;;;;;14.77;5.50;;;19.20;96.70;;;;;;5081694;28;20219;-87
2022/06/23 04:06:33;;;;;;;12.52;5.72;;;19.20;96.80;;;;;;5075366;28;20226;-88
2022/06/23 04:09:04;;;;;;;15.00;5.90;;;19.10;96.80;;;;;;5069052;28;20224;-87
2022/06/23 04:11:59;;;;;;;14.00;5.57;;;19.00;97.10;;;;;;5080126;28;20199;-87
2022/06/23 04:14:50;;;;;;;17.92;6.00;;;19.00;97.70;;;;;;5078558;28;20537;-89
2022/06/23 04:17:33;;;;;;;13.63;5.70;;;19.00;97.60;;;;;;5071150;28;20236;-87
2022/06/23 04:20:14;;;;;;;11.40;5.57;;;18.90;97.40;;;;;;5071272;28;20240;-87
2022/06/23 04:22:51;;;;;;;12.63;5.30;;;18.90;97.80;;;;;;5066801;28;20197;-89
2022/06/23 04:25:23;;;;;;;11.52;5.93;;;18.90;97.80;;;;;;5076855;28;20564;-88
2022/06/23 04:27:56;;;;;;;11.15;5.50;;;18.90;97.80;;;;;;5081646;28;20220;-87
2022/06/23 04:30:33;;;;;;;12.65;5.47;;;18.90;97.80;;;;;;5079368;28;20205;-89
2022/06/23 04:33:05;;;;;;;12.93;5.20;;;18.90;97.80;;;;;;5070341;28;20201;-87
2022/06/23 04:35:36;;;;;;;11.95;5.40;;;18.90;97.80;;;;;;5070156;28;20238;-85
2022/06/23 04:38:09;;;;;;;15.60;5.50;;;19.00;98.10;;;;;;5075834;28;20201;-86
2022/06/23 04:41:05;;;;;;;10.80;5.43;;;19.10;97.70;;;;;;5074949;28;20213;-87
2022/06/23 04:43:58;;;;;;;12.48;5.38;;;19.10;97.10;;;;;;5074104;28;20264;-88
2022/06/23 04:46:31;;;;;;;11.55;5.97;;;19.10;97.20;;;;;;5070608;28;20210;-87
2022/06/23 04:49:02;;;;;;;16.67;5.65;;;19.00;97.10;;;;;;5077925;28;20195;-87
2022/06/23 04:51:51;;;;;;;15.70;5.38;;;19.10;97.10;;;;;;5084549;28;20197;-87
2022/06/23 04:54:25;;;;;;;12.32;5.30;;;19.10;96.90;;;;;;5062251;28;20202;-86
2022/06/23 04:57:05;;;;;;;12.77;5.50;;;19.10;96.80;;;;;;5081523;28;20204;-87
2022/06/23 04:59:54;;;;;;;14.38;5.75;;;19.10;96.90;;;;;;5077234;28;20201;-86
2022/06/23 05:02:36;;;;;;;8.10;4.95;;;19.30;96.90;;;;;;5069076;28;20190;-87
2022/06/23 05:05:14;;;;;;;12.68;5.43;;;19.70;95.80;;;;;;5070145;28;20667;-85
2022/06/23 05:07:49;;;;;;;11.70;5.15;;;19.70;95.00;;;;;;5081213;28;20578;-83
2022/06/23 05:10:48;;;;;;;15.55;5.18;;;19.90;95.00;;;;;;5082136;28;20197;-85
2022/06/23 05:13:18;;;;;;;10.25;4.93;;;20.00;94.80;;;;;;5070462;28;20198;-87
2022/06/23 05:16:09;;;;;;;16.85;5.75;;;20.10;94.20;;;;;;5075795;28;20649;-87
2022/06/23 05:18:45;;;;;;;12.95;5.60;;;20.10;93.50;;;;;;5087801;28;20209;-88
2022/06/23 05:21:22;;;;;;;13.05;5.47;;;20.10;93.40;;;;;;5073827;28;20213;-90
2022/06/23 05:30:38;;;;;;;15.57;5.35;;;20.20;93.50;;;;;;5067526;28;20200;-88
2022/06/23 05:33:44;;;;;;;13.25;5.20;;;20.40;92.70;;;;;;5065947;28;20271;-87
2022/06/23 05:40:02;;;;;;;10.20;4.68;;;20.60;91.90;;;;;;5074315;28;20227;-86
2022/06/23 05:42:33;;;;;;;11.48;4.57;;;21.00;90.90;;;;;;5080268;28;20253;-87
2022/06/23 05:45:20;;;;;;;16.90;5.53;;;21.50;89.80;;;;;;5080545;28;20671;-86
2022/06/23 05:51:17;;;;;;;13.93;4.75;;;21.70;84.30;;;;;;5077096;28;20196;-86
2022/06/23 05:54:11;;;;;;;11.07;3.90;;;21.90;82.20;;;;;;5083671;28;20203;-87
2022/06/23 05:56:45;;;;;;;13.55;4.60;;;21.90;81.30;;;;;;5077491;28;20661;-87
2022/06/23 05:59:32;;;;;;;12.30;3.83;;;21.90;80.30;;;;;;5070477;28;20197;-87
2022/06/23 06:02:39;;;;;;;14.80;4.47;;;21.90;76.70;;;;;;5074292;28;20209;-87
2022/06/23 06:05:34;;;;;;;12.57;3.92;;;21.90;76.90;;;;;;5055694;28;20545;-87
2022/06/23 06:08:06;;;;;;;12.00;4.25;;;22.10;77.60;;;;;;5068615;28;20196;-87
2022/06/23 06:10:48;;;;;;;15.02;4.75;;;22.20;76.30;;;;;;5073241;28;20225;-86
2022/06/23 06:13:26;;;;;;;13.90;4.80;;;22.20;78.30;;;;;;5084708;28;20197;-86
2022/06/23 06:16:00;;;;;;;10.32;4.45;;;22.20;76.00;;;;;;5068938;28;20193;-86
2022/06/23 06:18:31;;;;;;;10.55;4.70;;;22.20;78.90;;;;;;5078034;28;20189;-86
2022/06/23 06:21:01;;;;;;;14.65;4.80;;;22.10;78.50;;;;;;5080040;28;20221;-87
2022/06/23 06:24:09;;;;;;;13.45;4.57;;;22.00;78.60;;;;;;5079359;28;20284;-87
2022/06/23 06:26:41;;;;;;;10.63;4.13;;;22.00;79.00;;;;;;5075667;28;20190;-87
2022/06/23 06:29:15;;;;;;;11.25;4.13;;;21.90;77.10;;;;;;5070179;28;20205;-87
2022/06/23 06:31:46;;;;;;;10.85;4.50;;;22.00;77.90;;;;;;5081742;28;20212;-86
2022/06/23 06:34:28;;;;;;;11.00;4.40;;;22.10;79.00;;;;;;5074746;28;20200;-86
2022/06/23 06:37:22;;;;;;;12.52;4.13;;;22.20;74.90;;;;;;5077306;28;20537;-87
2022/06/23 06:39:54;;;;;;;10.80;4.15;;;22.20;75.50;;;;;;5087964;28;20661;-88
2022/06/23 06:42:28;;;;;;;10.05;3.80;;;22.40;71.90;;;;;;5079396;28;20672;-87
2022/06/23 06:44:57;;;;;;;12.57;3.95;;;22.20;69.20;;;;;;5076894;28;20380;-88
2022/06/23 06:47:31;;;;;;;8.70;3.50;;;22.30;72.90;;;;;;5074153;28;20676;-87
2022/06/23 06:50:32;;;;;;;11.35;3.95;;;22.40;72.30;;;;;;5074473;28;20238;-87
2022/06/23 06:53:12;;;;;;;15.88;3.83;;;22.50;69.00;;;;;;5057223;28;20601;-87
2022/06/23 06:55:59;;;;;;;11.30;4.00;;;22.50;70.10;;;;;;5073754;28;20555;-87
2022/06/23 06:58:36;;;;;;;7.90;3.33;;;22.60;69.20;;;;;;5076325;28;20190;-87
2022/06/23 07:01:08;;;;;;;9.48;3.60;;;22.70;67.90;;;;;;5076562;28;20239;-88
2022/06/23 07:03:53;;;;;;;11.43;3.88;;;22.80;65.00;;;;;;5079366;28;20208;-88
2022/06/23 07:06:34;;;;;;;11.27;3.72;;;22.50;66.90;;;;;;5085165;28;20197;-87
2022/06/23 07:09:08;;;;;;;13.30;3.63;;;22.20;64.20;;;;;;5072713;28;20208;-87
2022/06/23 07:15:27;;;;;;;8.25;3.17;;;22.50;60.70;;;;;;5076420;28;20176;-88
2022/06/23 07:18:04;;;;;;;11.38;3.40;;;22.90;59.20;;;;;;5068932;28;20536;-88
2022/06/23 07:20:44;;;;;;;8.32;3.30;;;23.40;56.20;;;;;;5078086;28;20225;-86
2022/06/23 07:23:30;;;;;;;10.48;4.00;;;23.30;52.30;;;;;;5081684;28;20200;-86
2022/06/23 07:26:16;;;;;;;7.85;3.30;;;23.40;51.60;;;;;;5076607;28;20193;-86
2022/06/23 07:28:51;;;;;;;8.23;3.17;;;23.60;51.60;;;;;;5073746;28;20189;-83
2022/06/23 07:31:44;;;;;;;9.70;3.30;;;23.90;53.30;;;;;;5075168;28;20534;-84
2022/06/23 07:34:14;;;;;;;10.55;3.67;;;24.20;46.20;;;;;;5043442;28;20312;-83
2022/06/23 07:36:51;;;;;;;9.88;3.28;;;24.30;45.10;;;;;;5075807;28;20266;-84
2022/06/23 07:39:53;;;;;;;13.52;3.20;;;24.30;44.20;;;;;;5076374;28;20189;-83
2022/06/23 07:42:36;;;;;;;11.40;3.40;;;24.10;46.80;;;;;;5074377;28;20260;-86
2022/06/23 07:45:42;;;;;;;8.20;3.30;;;23.70;48.00;;;;;;5071201;28;20197;-86
2022/06/23 07:48:09;;;;;;;10.88;3.30;;;23.80;46.10;;;;;;5067060;28;20209;-86
2022/06/23 07:50:47;;;;;;;10.57;3.00;;;23.80;45.60;;;;;;5069719;28;20650;-85
2022/06/23 07:53:20;;;;;;;8.55;3.45;;;23.80;44.50;;;;;;5060195;28;20235;-85
2022/06/23 07:55:58;;;;;;;9.45;3.78;;;24.10;48.50;;;;;;5069657;28;20196;-86
2022/06/23 07:58:53;;;;;;;9.25;3.22;;;24.60;48.00;;;;;;5066223;28;20202;-84
2022/06/23 08:01:27;;;;;;;9.02;3.42;;;24.70;48.00;;;;;;5069922;28;20236;-84
2022/06/23 08:04:17;;;;;;;11.73;3.30;;;24.80;46.90;;;;;;5052785;28;20288;-83
2022/06/23 08:06:47;;;;;;;9.63;3.33;;;24.90;44.90;;;;;;5069345;28;20197;-84
2022/06/23 08:09:26;;;;;;;8.05;3.15;;;25.20;39.60;;;;;;5071635;28;20535;-84
2022/06/23 08:16:49;;;;;;;8.60;3.83;;;25.50;37.80;;;;;;5069100;28;20220;-86
2022/06/23 08:17:58;;;;;;;10.10;3.75;;;26.00;36.80;;;;;;5079439;28;20206;-86
2022/06/23 08:20:31;;;;;;;8.13;3.10;;;26.80;32.00;;;;;;5063764;28;20221;-86
2022/06/23 08:23:51;;;;;;;9.15;3.35;;;28.50;27.60;;;;;;5072587;28;20220;-87
2022/06/23 08:26:36;;;;;;;9.32;3.83;;;30.20;20.80;;;;;;5058309;28;20276;-87
2022/06/23 08:29:08;;;;;;;12.57;3.58;;;31.90;17.60;;;;;;5063851;28;20197;-87
2022/06/23 08:31:40;;;;;;;9.40;4.13;;;33.00;17.00;;;;;;5073657;28;20543;-87
2022/06/23 08:34:11;;;;;;;9.85;3.92;;;34.30;15.00;;;;;;5086984;28;20200;-87
2022/06/23 08:36:42;;;;;;;12.35;4.50;;;35.00;12.50;;;;;;5073401;28;20442;-87
2022/06/23 08:39:14;;;;;;;10.95;4.25;;;35.70;11.40;;;;;;5069149;28;20204;-87
2022/06/23 08:42:05;;;;;;;11.77;5.18;;;36.10;11.00;;;;;;5052305;28;20228;-87
2022/06/23 08:44:52;;;;;;;14.00;5.03;;;36.50;11.10;;;;;;5069297;28;20197;-87
2022/06/23 08:47:25;;;;;;;10.10;4.35;;;37.80;8.70;;;;;;5067715;28;20208;-87
2022/06/23 08:50:18;;;;;;;9.90;4.30;;;38.30;7.00;;;;;;5057170;28;20667;-87
2022/06/23 08:52:58;;;;;;;7.80;4.43;;;38.00;6.40;;;;;;5054493;28;20559;-87
2022/06/23 08:55:30;;;;;;;7.15;4.22;;;37.00;7.70;;;;;;5054816;28;20250;-87
2022/06/23 08:58:08;;;;;;;8.98;4.35;;;38.20;7.10;;;;;;5075205;28;20197;-86
2022/06/23 09:00:42;;;;;;;8.77;4.18;;;35.60;9.10;;;;;;5055365;28;20212;-87
2022/06/23 09:03:15;;;;;;;10.48;4.35;;;34.80;10.20;;;;;;5073969;28;20215;-87
2022/06/23 09:05:51;;;;;;;14.55;4.63;;;36.20;9.00;;;;;;5075356;28;20193;-87
2022/06/23 09:08:49;;;;;;;10.85;4.45;;;36.10;9.30;;;;;;5074498;28;20188;-87
2022/06/23 09:11:22;;;;;;;13.38;4.40;;;36.20;8.50;;;;;;5076185;28;20193;-87
2022/06/23 09:14:15;;;;;;;11.95;4.97;;;36.20;8.40;;;;;;5051992;28;20198;-86
2022/06/23 09:17:02;;;;;;;7.20;4.10;;;36.00;8.80;;;;;;5068746;28;20200;-87
2022/06/23 09:19:56;;;;;;;11.35;4.55;;;36.10;9.80;;;;;;5076068;28;20250;-87
2022/06/23 09:22:53;;;;;;;9.05;4.78;;;37.50;7.20;;;;;;5076456;28;20215;-87
2022/06/23 09:25:37;;;;;;;7.40;4.85;;;37.30;6.70;;;;;;5079992;28;20208;-87
2022/06/23 09:28:19;;;;;;;7.40;5.13;;;39.00;6.50;;;;;;5078321;28;20196;-88
2022/06/23 09:31:19;;;;;;;8.55;4.90;;;40.10;4.40;;;;;;5060117;28;20601;-87
2022/06/23 09:34:06;;;;;;;11.43;6.47;;;41.60;2.80;;;;;;5057299;28;20265;-87
2022/06/23 09:37:06;;;;;;;8.70;5.55;;;40.80;2.50;;;;;;5073086;28;20197;-87
2022/06/23 09:40:12;;;;;;;12.43;6.35;;;41.40;2.70;;;;;;5009142;28;20235;-89
2022/06/23 09:43:33;;;;;;;9.95;6.30;;;40.80;2.50;;;;;;4954670;28;20236;-89
2022/06/23 09:46:16;;;;;;;9.13;6.60;;;39.90;3.50;;;;;;4950943;28;20201;-89
2022/06/23 09:49:18;;;;;;;12.57;6.47;;;40.30;2.90;;;;;;4952712;28;20203;-89
2022/06/23 09:52:02;;;;;;;10.15;6.78;;;39.80;3.60;;;;;;4952600;29;20212;-89
2022/06/23 09:54:58;;;;;;;9.20;5.88;;;40.00;5.40;;;;;;4954798;28;20211;-89
2022/06/23 09:58:06;;;;;;;8.82;5.80;;;39.90;3.40;;;;;;4955816;28;20205;-88
2022/06/23 10:00:43;;;;;;;10.25;6.25;;;39.60;4.10;;;;;;4952836;28;20208;-89
2022/06/23 10:03:55;;;;;;;9.68;5.85;;;39.50;3.80;;;;;;4957049;28;20224;-89
2022/06/23 10:07:01;;;;;;;8.02;5.70;;;38.10;4.40;;;;;;4951462;28;20205;-89
2022/06/23 10:09:57;;;;;;;10.68;6.05;;;38.30;5.80;;;;;;4953617;28;20717;-89
2022/06/23 10:12:53;;;;;;;8.35;5.68;;;39.00;4.20;;;;;;4949010;28;20208;-89
2022/06/23 10:15:36;;;;;;;9.27;5.72;;;39.10;5.40;;;;;;4954037;28;20748;-89
2022/06/23 10:18:33;;;;;;;10.60;5.97;;;39.30;7.30;;;;;;5012426;28;20198;-88
2022/06/23 10:21:15;;;;;;;8.70;6.10;;;39.90;3.80;;;;;;5079285;28;20210;-89
2022/06/23 10:24:13;;;;;;;9.10;5.78;;;39.50;3.40;;;;;;5072993;28;20213;-89
2022/06/23 10:27:00;;;;;;;8.00;5.68;;;39.70;3.30;;;;;;5075251;28;20197;-89
2022/06/23 10:29:59;;;;;;;9.20;5.50;;;39.10;4.70;;;;;;5073548;28;20197;-89
2022/06/23 10:33:15;;;;;;;12.88;5.18;;;39.30;5.30;;;;;;5080047;28;20202;-89
2022/06/23 10:36:21;;;;;;;9.30;4.60;;;37.60;6.60;;;;;;5076217;28;20189;-86
2022/06/23 10:39:15;;;;;;;8.75;4.20;;;35.50;9.70;;;;;;5072880;28;20204;-86
2022/06/23 10:42:03;;;;;;;7.93;3.97;;;35.30;10.30;;;;;;5071789;28;20213;-87
2022/06/23 10:45:00;;;;;;;8.05;4.03;;;35.70;10.00;;;;;;5065441;28;20201;-87
2022/06/23 10:47:47;;;;;;;8.27;4.13;;;35.40;8.90;;;;;;5071848;28;20208;-86
2022/06/23 10:50:41;;;;;;;6.97;3.92;;;35.60;10.70;;;;;;5074134;28;20283;-87
2022/06/23 10:53:26;;;;;;;9.38;4.20;;;35.30;10.30;;;;;;4975025;28;20312;-87
2022/06/23 10:56:33;;;;;;;10.50;3.75;;;34.50;11.80;;;;;;4982300;28;20209;-86
2022/06/23 10:59:32;;;;;;;10.15;4.05;;;33.90;14.00;;;;;;4984916;28;20921;-88
2022/06/23 11:02:45;;;;;;;10.10;3.88;;;34.50;11.50;;;;;;4960240;28;20221;-87
2022/06/23 11:05:52;;;;;;;5.80;3.53;;;34.90;11.50;;;;;;4935307;29;20206;-86
2022/06/23 11:08:56;;;;;;;7.68;4.00;;;34.30;12.20;;;;;;4929943;29;20209;-86
2022/06/23 11:11:48;;;;;;;7.68;3.55;;;33.30;13.50;;;;;;4935327;29;20202;-87
2022/06/23 11:14:27;;;;;;;10.25;3.80;;;32.00;16.60;;;;;;4932900;29;20240;-86
2022/06/23 11:17:29;;;;;;;9.88;3.95;;;31.20;17.20;;;;;;4930196;29;20225;-86
2022/06/23 11:20:17;;;;;;;9.45;3.70;;;30.90;19.40;;;;;;4919102;29;20202;-86
2022/06/23 11:22:50;;;;;;;9.05;3.60;;;31.30;17.30;;;;;;4936039;29;20224;-86
2022/06/23 11:25:54;;;;;;;7.53;3.42;;;31.40;17.30;;;;;;4940871;29;20193;-86
2022/06/23 11:29:14;;;;;;;8.77;4.00;;;31.20;17.20;;;;;;4928255;29;20582;-86
2022/06/23 11:31:56;;;;;;;8.43;3.60;;;30.70;17.00;;;;;;4992954;28;20385;-86
2022/06/23 11:34:57;;;;;;;10.23;3.90;;;30.00;17.70;;;;;;5004630;28;20198;-85
2022/06/23 11:37:56;;;;;;;10.57;3.80;;;29.20;20.10;;;;;;5000897;28;20669;-86
2022/06/23 11:40:54;;;;;;;7.32;3.50;;;28.90;21.00;;;;;;5074746;28;20184;-86
2022/06/23 11:43:25;;;;;;;7.28;3.10;;;29.30;19.20;;;;;;5083095;28;20632;-86
2022/06/23 11:46:18;;;;;;;9.68;3.22;;;29.10;20.30;;;;;;5065266;28;20200;-86
2022/06/23 11:49:05;;;;;;;8.20;3.00;;;28.60;21.70;;;;;;5074550;28;20193;-86
2022/06/23 11:52:17;;;;;;;8.25;4.15;;;28.60;21.80;;;;;;5075262;28;20200;-86
2022/06/23 11:55:13;;;;;;;9.55;3.10;;;29.00;19.90;;;;;;5067661;28;20201;-86
2022/06/23 11:58:08;;;;;;;9.90;3.20;;;29.70;20.00;;;;;;5071553;28;20199;-86
2022/06/23 12:00:47;;;;;;;9.38;3.30;;;29.90;17.90;;;;;;5083117;28;20196;-86
2022/06/23 12:03:48;;;;;;;10.18;3.05;;;30.10;17.80;;;;;;5071298;28;20225;-85
2022/06/23 12:06:23;;;;;;;12.93;3.22;;;29.80;18.80;;;;;;5072560;28;20206;-85
2022/06/23 12:09:17;;;;;;;9.70;3.03;;;29.80;17.60;;;;;;5077134;28;20565;-85
2022/06/23 12:11:44;;;;;;;6.38;2.90;;;29.90;17.70;;;;;;5048957;28;20560;-85
2022/06/23 12:14:17;;;;;;;9.88;2.80;;;30.10;17.90;;;;;;5072021;28;20749;-85
2022/06/23 12:17:04;;;;;;;10.77;3.13;;;30.10;18.90;;;;;;5054329;28;20636;-85
2022/06/23 12:19:41;;;;;;;7.55;2.92;;;29.80;17.40;;;;;;5071476;28;20211;-87
2022/06/23 12:22:15;;;;;;;9.00;2.83;;;30.10;16.70;;;;;;5065243;28;20208;-85
2022/06/23 12:24:55;;;;;;;7.40;2.70;;;30.20;16.70;;;;;;5079169;28;20220;-86
2022/06/23 12:27:29;;;;;;;9.07;2.83;;;30.00;16.70;;;;;;5072779;28;20271;-86
2022/06/23 12:30:17;;;;;;;6.60;2.95;;;29.50;17.80;;;;;;5065902;28;20192;-86
2022/06/23 12:33:00;;;;;;;8.50;3.05;;;28.90;19.00;;;;;;5069941;28;20193;-87
2022/06/23 12:35:36;;;;;;;9.07;3.10;;;28.80;19.60;;;;;;5065471;28;20200;-86
2022/06/23 12:38:07;;;;;;;10.50;3.08;;;29.00;19.50;;;;;;5068741;28;20192;-87
2022/06/23 12:40:42;;;;;;;7.22;2.90;;;28.70;19.00;;;;;;5071823;28;20185;-86
2022/06/23 12:43:15;;;;;;;8.82;3.00;;;28.70;19.50;;;;;;5074865;28;20224;-86
2022/06/23 12:46:06;;;;;;;5.53;2.75;;;28.70;20.40;;;;;;5073584;28;20189;-86
2022/06/23 12:49:19;;;;;;;6.40;2.67;;;28.80;19.00;;;;;;5078436;28;21383;-86
2022/06/23 12:52:14;;;;;;;8.88;2.97;;;28.60;19.00;;;;;;4980760;28;20208;-86
2022/06/23 12:55:13;;;;;;;10.65;2.90;;;28.50;18.80;;;;;;4987082;28;20204;-86
2022/06/23 12:58:02;;;;;;;9.02;2.90;;;28.90;19.10;;;;;;4997980;28;20213;-86
2022/06/23 13:00:53;;;;;;;9.00;3.08;;;29.00;18.20;;;;;;4998427;28;20200;-87
2022/06/23 13:03:25;;;;;;;7.75;2.90;;;29.10;17.70;;;;;;4983295;28;20255;-86
2022/06/23 13:06:19;;;;;;;9.43;3.25;;;29.30;17.50;;;;;;4992682;28;20207;-86
2022/06/23 13:09:43;;;;;;;8.13;2.78;;;29.50;18.70;;;;;;4991521;28;20203;-86
2022/06/23 13:15:57;;;;;;;14.85;3.03;;;29.60;16.40;;;;;;4979941;28;20204;-86
2022/06/23 13:19:00;;;;;;;8.65;3.38;;;29.60;16.40;;;;;;4987721;28;20195;-84
2022/06/23 13:21:54;;;;;;;10.52;3.00;;;29.50;17.80;;;;;;4996279;28;20259;-85
2022/06/23 13:24:47;;;;;;;8.98;3.00;;;29.50;18.10;;;;;;5068775;28;20227;-86
2022/06/23 13:27:28;;;;;;;65.93;35.15;;;29.50;19.10;;;;;;5073044;28;20539;-85
2022/06/23 13:30:08;;;;;;;8.57;3.20;;;29.10;18.00;;;;;;5069197;28;20675;-85
2022/06/23 13:32:51;;;;;;;12.23;3.35;;;29.30;17.40;;;;;;5079021;28;20287;-85
2022/06/23 13:35:47;;;;;;;7.57;3.10;;;29.30;18.50;;;;;;5087062;28;20237;-85
2022/06/23 13:38:37;;;;;;;8.35;2.92;;;29.30;18.70;;;;;;5076448;28;20200;-85
2022/06/23 13:41:15;;;;;;;10.63;3.20;;;29.40;18.60;;;;;;5078047;28;20683;-85
2022/06/23 13:43:54;;;;;;;11.23;4.15;;;29.30;19.60;;;;;;5072982;28;20224;-85
2022/06/23 13:46:42;;;;;;;9.07;3.47;;;29.30;21.20;;;;;;5067039;28;20203;-85
2022/06/23 13:49:44;;;;;;;11.52;4.57;;;29.30;21.00;;;;;;5063523;28;20291;-85
2022/06/23 13:52:22;;;;;;;13.13;3.30;;;29.30;21.20;;;;;;5065818;28;20196;-85
2022/06/23 13:55:24;;;;;;;9.93;3.65;;;29.10;20.80;;;;;;5073068;28;20235;-85
2022/06/23 13:58:00;;;;;;;10.20;5.63;;;29.00;23.10;;;;;;5075603;28;20551;-85
2022/06/23 14:00:47;;;;;;;12.80;4.10;;;28.60;23.50;;;;;;5067042;28;20695;-86
2022/06/23 14:03:43;;;;;;;11.70;3.50;;;28.70;23.70;;;;;;5066601;28;20213;-86
2022/06/23 14:06:49;;;;;;;9.60;3.97;;;28.90;23.80;;;;;;5068194;28;20607;-85
2022/06/23 14:09:37;;;;;;;10.60;3.42;;;28.90;22.80;;;;;;5066679;28;20196;-85
2022/06/23 14:12:29;;;;;;;10.27;3.58;;;28.90;23.50;;;;;;5072486;28;20208;-85
2022/06/23 14:15:14;;;;;;;10.02;3.67;;;28.80;24.10;;;;;;5063797;28;20197;-86
2022/06/23 14:17:50;;;;;;;10.05;3.50;;;28.80;23.70;;;;;;5074575;28;20181;-86
2022/06/23 14:20:42;;;;;;;10.60;4.20;;;28.70;23.20;;;;;;5071712;28;20236;-86
2022/06/23 14:23:38;;;;;;;10.77;3.58;;;28.40;25.10;;;;;;5063581;28;20228;-88
2022/06/23 14:26:11;;;;;;;12.07;3.90;;;28.50;24.30;;;;;;5068209;28;20207;-88
2022/06/23 14:28:49;;;;;;;10.63;3.67;;;28.60;25.20;;;;;;5073146;28;20276;-89
2022/06/23 14:31:32;;;;;;;11.40;3.53;;;28.60;23.80;;;;;;5073520;28;20188;-90
2022/06/23 14:34:12;;;;;;;9.20;4.30;;;28.50;23.80;;;;;;5071849;28;20203;-86